sensor_id;sensor_type;location;lat;lon;timestamp;temperature;humidity
67901;DHT22;54700;51.796;10.956;2024-01-06T00:00:15;5.40;99.90
67901;DHT22;54700;51.796;10.956;2024-01-06T00:02:42;5.40;99.90
67901;DHT22;54700;51.796;10.956;2024-01-06T00:05:10;5.50;99.90
67901;DHT22;54700;51.796;10.956;2024-01-06T00:07:37;5.50;99.90
67901;DHT22;54700;51.796;10.956;2024-01-06T00:10:06;5.50;99.90
67901;DHT22;54700;51.796;10.956;2024-01-06T00:12:34;5.50;99.90
67901;DHT22;54700;51.796;10.956;2024-01-06T00:15:01;5.50;99.90
67901;DHT22;54700;51.796;10.956;2024-01-06T00:17:28;5.50;99.90
67901;DHT22;54700;51.796;10.956;2024-01-06T00:19:55;5.50;99.90
67901;DHT22;54700;51.796;10.956;2024-01-06T00:22:22;5.50;99.90
67901;DHT22;54700;51.796;10.956;2024-01-06T00:24:48;5.40;99.90
67901;DHT22;54700;51.796;10.956;2024-01-06T00:27:17;5.40;99.90
67901;DHT22;54700;51.796;10.956;2024-01-06T00:29:43;5.40;99.90
67901;DHT22;54700;51.796;10.956;2024-01-06T00:32:10;5.40;99.90
67901;DHT22;54700;51.796;10.956;2024-01-06T00:34:37;5.40;99.90
67901;DHT22;54700;51.796;10.956;2024-01-06T00:37:04;5.40;99.90
67901;DHT22;54700;51.796;10.956;2024-01-06T00:39:31;5.40;99.90
67901;DHT22;54700;51.796;10.956;2024-01-06T00:41:58;5.40;99.90
67901;DHT22;54700;51.796;10.956;2024-01-06T00:44:26;5.30;99.90
67901;DHT22;54700;51.796;10.956;2024-01-06T00:46:53;5.30;99.90
67901;DHT22;54700;51.796;10.956;2024-01-06T00:49:19;5.30;99.90
67901;DHT22;54700;51.796;10.956;2024-01-06T00:51:46;5.30;99.90
67901;DHT22;54700;51.796;10.956;2024-01-06T00:54:14;5.30;99.90
67901;DHT22;54700;51.796;10.956;2024-01-06T00:56:41;5.30;99.90
67901;DHT22;54700;51.796;10.956;2024-01-06T00:59:09;5.30;99.90
67901;DHT22;54700;51.796;10.956;2024-01-06T01:01:37;5.30;99.90
67901;DHT22;54700;51.796;10.956;2024-01-06T01:04:06;5.30;99.90
67901;DHT22;54700;51.796;10.956;2024-01-06T01:06:33;5.30;99.90
67901;DHT22;54700;51.796;10.956;2024-01-06T01:09:03;5.30;99.90
67901;DHT22;54700;51.796;10.956;2024-01-06T01:11:30;5.30;99.90
67901;DHT22;54700;51.796;10.956;2024-01-06T01:13:57;5.30;99.90
67901;DHT22;54700;51.796;10.956;2024-01-06T01:16:24;5.20;99.90
67901;DHT22;54700;51.796;10.956;2024-01-06T01:18:52;5.20;99.90
67901;DHT22;54700;51.796;10.956;2024-01-06T01:21:19;5.20;99.90
67901;DHT22;54700;51.796;10.956;2024-01-06T01:23:46;5.30;99.90
67901;DHT22;54700;51.796;10.956;2024-01-06T01:26:13;5.30;99.90
67901;DHT22;54700;51.796;10.956;2024-01-06T01:28:40;5.20;99.90
67901;DHT22;54700;51.796;10.956;2024-01-06T01:31:08;5.30;99.90
67901;DHT22;54700;51.796;10.956;2024-01-06T01:33:35;5.30;99.90
67901;DHT22;54700;51.796;10.956;2024-01-06T01:36:03;5.30;99.90
67901;DHT22;54700;51.796;10.956;2024-01-06T01:38:30;5.30;99.90
67901;DHT22;54700;51.796;10.956;2024-01-06T01:40:57;5.20;99.90
67901;DHT22;54700;51.796;10.956;2024-01-06T01:43:25;5.20;99.90
67901;DHT22;54700;51.796;10.956;2024-01-06T01:45:54;5.20;99.90
67901;DHT22;54700;51.796;10.956;2024-01-06T01:48:22;5.20;99.90
67901;DHT22;54700;51.796;10.956;2024-01-06T01:50:51;5.20;99.90
67901;DHT22;54700;51.796;10.956;2024-01-06T01:53:21;5.20;99.90
67901;DHT22;54700;51.796;10.956;2024-01-06T01:55:49;5.20;99.90
67901;DHT22;54700;51.796;10.956;2024-01-06T01:58:17;5.20;99.90
67901;DHT22;54700;51.796;10.956;2024-01-06T02:00:44;5.20;99.90
67901;DHT22;54700;51.796;10.956;2024-01-06T02:03:11;5.20;99.90
67901;DHT22;54700;51.796;10.956;2024-01-06T02:05:40;5.20;99.90
67901;DHT22;54700;51.796;10.956;2024-01-06T02:08:07;5.20;99.90
67901;DHT22;54700;51.796;10.956;2024-01-06T02:10:36;5.30;99.90
67901;DHT22;54700;51.796;10.956;2024-01-06T02:13:07;5.20;99.90
67901;DHT22;54700;51.796;10.956;2024-01-06T02:15:35;5.30;99.90
67901;DHT22;54700;51.796;10.956;2024-01-06T02:18:04;5.30;99.90
67901;DHT22;54700;51.796;10.956;2024-01-06T02:20:31;5.30;99.90
67901;DHT22;54700;51.796;10.956;2024-01-06T02:23:00;5.30;99.90
67901;DHT22;54700;51.796;10.956;2024-01-06T02:25:26;5.40;99.90
67901;DHT22;54700;51.796;10.956;2024-01-06T02:27:54;5.40;99.90
67901;DHT22;54700;51.796;10.956;2024-01-06T02:30:21;5.40;99.90
67901;DHT22;54700;51.796;10.956;2024-01-06T02:32:48;5.40;99.90
67901;DHT22;54700;51.796;10.956;2024-01-06T02:35:15;5.30;99.90
67901;DHT22;54700;51.796;10.956;2024-01-06T02:37:42;5.30;99.90
67901;DHT22;54700;51.796;10.956;2024-01-06T02:40:11;5.30;99.90
67901;DHT22;54700;51.796;10.956;2024-01-06T02:42:38;5.30;99.90
67901;DHT22;54700;51.796;10.956;2024-01-06T02:45:06;5.30;99.90
67901;DHT22;54700;51.796;10.956;2024-01-06T02:47:34;5.30;99.90
67901;DHT22;54700;51.796;10.956;2024-01-06T02:50:01;5.30;99.90
67901;DHT22;54700;51.796;10.956;2024-01-06T02:52:28;5.30;99.90
67901;DHT22;54700;51.796;10.956;2024-01-06T02:54:55;5.30;99.90
67901;DHT22;54700;51.796;10.956;2024-01-06T02:57:23;5.30;99.90
67901;DHT22;54700;51.796;10.956;2024-01-06T02:59:50;5.30;99.90
67901;DHT22;54700;51.796;10.956;2024-01-06T03:02:17;5.30;99.90
67901;DHT22;54700;51.796;10.956;2024-01-06T03:04:44;5.30;99.90
67901;DHT22;54700;51.796;10.956;2024-01-06T03:07:11;5.30;99.90
67901;DHT22;54700;51.796;10.956;2024-01-06T03:09:38;5.30;99.90
67901;DHT22;54700;51.796;10.956;2024-01-06T03:12:05;5.30;99.90
67901;DHT22;54700;51.796;10.956;2024-01-06T03:14:34;5.30;99.90
67901;DHT22;54700;51.796;10.956;2024-01-06T03:17:01;5.30;99.90
67901;DHT22;54700;51.796;10.956;2024-01-06T03:19:28;5.30;99.90
67901;DHT22;54700;51.796;10.956;2024-01-06T03:21:55;5.30;99.90
67901;DHT22;54700;51.796;10.956;2024-01-06T03:24:22;5.30;99.90
67901;DHT22;54700;51.796;10.956;2024-01-06T03:26:50;5.30;99.90
67901;DHT22;54700;51.796;10.956;2024-01-06T03:29:17;5.30;99.90
67901;DHT22;54700;51.796;10.956;2024-01-06T03:31:46;5.30;99.90
67901;DHT22;54700;51.796;10.956;2024-01-06T03:34:13;5.40;99.90
67901;DHT22;54700;51.796;10.956;2024-01-06T03:36:40;5.40;99.90
67901;DHT22;54700;51.796;10.956;2024-01-06T03:39:07;5.40;99.90
67901;DHT22;54700;51.796;10.956;2024-01-06T03:41:35;5.40;99.90
67901;DHT22;54700;51.796;10.956;2024-01-06T03:44:03;5.40;99.90
67901;DHT22;54700;51.796;10.956;2024-01-06T03:46:30;5.40;99.90
67901;DHT22;54700;51.796;10.956;2024-01-06T03:49:01;5.50;99.90
67901;DHT22;54700;51.796;10.956;2024-01-06T03:51:29;5.40;99.90
67901;DHT22;54700;51.796;10.956;2024-01-06T03:53:55;5.40;99.90
67901;DHT22;54700;51.796;10.956;2024-01-06T03:56:22;5.40;99.90
67901;DHT22;54700;51.796;10.956;2024-01-06T03:58:49;5.40;99.90
67901;DHT22;54700;51.796;10.956;2024-01-06T04:01:16;5.40;99.90
67901;DHT22;54700;51.796;10.956;2024-01-06T04:03:43;5.30;99.90
67901;DHT22;54700;51.796;10.956;2024-01-06T04:06:11;5.40;99.90
67901;DHT22;54700;51.796;10.956;2024-01-06T04:08:38;5.30;99.90
67901;DHT22;54700;51.796;10.956;2024-01-06T04:11:06;5.30;99.90
67901;DHT22;54700;51.796;10.956;2024-01-06T04:13:33;5.30;99.90
67901;DHT22;54700;51.796;10.956;2024-01-06T04:16:00;5.30;99.90
67901;DHT22;54700;51.796;10.956;2024-01-06T04:18:27;5.30;99.90
67901;DHT22;54700;51.796;10.956;2024-01-06T04:20:54;5.30;99.90
67901;DHT22;54700;51.796;10.956;2024-01-06T04:23:22;5.20;99.90
67901;DHT22;54700;51.796;10.956;2024-01-06T04:25:49;5.20;99.90
67901;DHT22;54700;51.796;10.956;2024-01-06T04:28:16;5.20;99.90
67901;DHT22;54700;51.796;10.956;2024-01-06T04:30:43;5.20;99.90
67901;DHT22;54700;51.796;10.956;2024-01-06T04:33:10;5.20;99.90
67901;DHT22;54700;51.796;10.956;2024-01-06T04:35:37;5.20;99.90
67901;DHT22;54700;51.796;10.956;2024-01-06T04:38:04;5.20;99.90
67901;DHT22;54700;51.796;10.956;2024-01-06T04:40:32;5.20;99.90
67901;DHT22;54700;51.796;10.956;2024-01-06T04:43:00;5.20;99.90
67901;DHT22;54700;51.796;10.956;2024-01-06T04:45:28;5.10;99.90
67901;DHT22;54700;51.796;10.956;2024-01-06T04:47:55;5.10;99.90
67901;DHT22;54700;51.796;10.956;2024-01-06T04:50:22;5.10;99.90
67901;DHT22;54700;51.796;10.956;2024-01-06T04:52:49;5.10;99.90
67901;DHT22;54700;51.796;10.956;2024-01-06T04:55:16;5.10;99.90
67901;DHT22;54700;51.796;10.956;2024-01-06T04:57:44;5.20;99.90
67901;DHT22;54700;51.796;10.956;2024-01-06T05:00:12;5.20;99.90
67901;DHT22;54700;51.796;10.956;2024-01-06T05:02:39;5.20;99.90
67901;DHT22;54700;51.796;10.956;2024-01-06T05:05:06;5.20;99.90
67901;DHT22;54700;51.796;10.956;2024-01-06T05:07:33;5.10;99.90
67901;DHT22;54700;51.796;10.956;2024-01-06T05:10:00;5.10;99.90
67901;DHT22;54700;51.796;10.956;2024-01-06T05:12:27;5.10;99.90
67901;DHT22;54700;51.796;10.956;2024-01-06T05:14:56;5.10;99.90
67901;DHT22;54700;51.796;10.956;2024-01-06T05:17:22;5.10;99.90
67901;DHT22;54700;51.796;10.956;2024-01-06T05:19:49;5.10;99.90
67901;DHT22;54700;51.796;10.956;2024-01-06T05:22:16;5.10;99.90
67901;DHT22;54700;51.796;10.956;2024-01-06T05:24:43;5.10;99.90
67901;DHT22;54700;51.796;10.956;2024-01-06T05:27:13;5.10;99.90
67901;DHT22;54700;51.796;10.956;2024-01-06T05:29:40;5.10;99.90
67901;DHT22;54700;51.796;10.956;2024-01-06T05:32:08;5.00;99.90
67901;DHT22;54700;51.796;10.956;2024-01-06T05:34:36;5.00;99.90
67901;DHT22;54700;51.796;10.956;2024-01-06T05:37:03;5.00;99.90
67901;DHT22;54700;51.796;10.956;2024-01-06T05:39:30;5.00;99.90
67901;DHT22;54700;51.796;10.956;2024-01-06T05:41:56;5.00;99.90
67901;DHT22;54700;51.796;10.956;2024-01-06T05:44:23;5.00;99.90
67901;DHT22;54700;51.796;10.956;2024-01-06T05:46:50;5.00;99.90
67901;DHT22;54700;51.796;10.956;2024-01-06T05:49:19;5.00;99.90
67901;DHT22;54700;51.796;10.956;2024-01-06T05:51:45;5.00;99.90
67901;DHT22;54700;51.796;10.956;2024-01-06T05:54:12;5.00;99.90
67901;DHT22;54700;51.796;10.956;2024-01-06T05:56:40;5.00;99.90
67901;DHT22;54700;51.796;10.956;2024-01-06T05:59:07;4.90;99.90
67901;DHT22;54700;51.796;10.956;2024-01-06T06:01:34;4.90;99.90
67901;DHT22;54700;51.796;10.956;2024-01-06T06:04:01;4.90;99.90
67901;DHT22;54700;51.796;10.956;2024-01-06T06:06:29;4.80;99.90
67901;DHT22;54700;51.796;10.956;2024-01-06T06:08:56;4.80;99.90
67901;DHT22;54700;51.796;10.956;2024-01-06T06:11:23;4.70;99.90
67901;DHT22;54700;51.796;10.956;2024-01-06T06:13:50;4.70;99.90
67901;DHT22;54700;51.796;10.956;2024-01-06T06:16:17;4.60;99.90
67901;DHT22;54700;51.796;10.956;2024-01-06T06:18:44;4.60;99.90
67901;DHT22;54700;51.796;10.956;2024-01-06T06:21:11;4.60;99.90
67901;DHT22;54700;51.796;10.956;2024-01-06T06:23:39;4.60;99.90
67901;DHT22;54700;51.796;10.956;2024-01-06T06:26:06;4.60;99.90
67901;DHT22;54700;51.796;10.956;2024-01-06T06:28:34;4.60;99.90
67901;DHT22;54700;51.796;10.956;2024-01-06T06:31:01;4.60;99.90
67901;DHT22;54700;51.796;10.956;2024-01-06T06:33:28;4.50;99.90
67901;DHT22;54700;51.796;10.956;2024-01-06T06:35:55;4.50;99.90
67901;DHT22;54700;51.796;10.956;2024-01-06T06:38:22;4.40;99.90
67901;DHT22;54700;51.796;10.956;2024-01-06T06:40:51;4.40;99.90
67901;DHT22;54700;51.796;10.956;2024-01-06T06:43:18;4.30;99.90
67901;DHT22;54700;51.796;10.956;2024-01-06T06:45:46;4.30;99.90
67901;DHT22;54700;51.796;10.956;2024-01-06T06:48:13;4.30;99.90
67901;DHT22;54700;51.796;10.956;2024-01-06T06:50:40;4.20;99.90
67901;DHT22;54700;51.796;10.956;2024-01-06T06:53:07;4.20;99.90
67901;DHT22;54700;51.796;10.956;2024-01-06T06:55:34;4.20;99.90
67901;DHT22;54700;51.796;10.956;2024-01-06T06:58:04;4.20;99.90
67901;DHT22;54700;51.796;10.956;2024-01-06T07:00:31;4.20;99.90
67901;DHT22;54700;51.796;10.956;2024-01-06T07:02:57;4.10;99.90
67901;DHT22;54700;51.796;10.956;2024-01-06T07:05:25;4.10;99.90
67901;DHT22;54700;51.796;10.956;2024-01-06T07:07:52;4.10;99.90
67901;DHT22;54700;51.796;10.956;2024-01-06T07:10:19;4.00;99.90
67901;DHT22;54700;51.796;10.956;2024-01-06T07:12:45;4.00;99.90
67901;DHT22;54700;51.796;10.956;2024-01-06T07:15:14;3.90;99.90
67901;DHT22;54700;51.796;10.956;2024-01-06T07:17:40;3.90;99.90
67901;DHT22;54700;51.796;10.956;2024-01-06T07:20:10;3.90;99.90
67901;DHT22;54700;51.796;10.956;2024-01-06T07:22:37;3.90;99.90
67901;DHT22;54700;51.796;10.956;2024-01-06T07:25:04;3.90;99.90
67901;DHT22;54700;51.796;10.956;2024-01-06T07:27:32;3.90;99.90
67901;DHT22;54700;51.796;10.956;2024-01-06T07:29:59;3.90;99.90
67901;DHT22;54700;51.796;10.956;2024-01-06T07:32:27;3.90;99.90
67901;DHT22;54700;51.796;10.956;2024-01-06T07:34:54;3.80;99.90
67901;DHT22;54700;51.796;10.956;2024-01-06T07:37:21;3.80;99.90
67901;DHT22;54700;51.796;10.956;2024-01-06T07:39:49;3.80;99.90
67901;DHT22;54700;51.796;10.956;2024-01-06T07:42:16;3.80;99.90
67901;DHT22;54700;51.796;10.956;2024-01-06T07:44:43;3.80;99.90
67901;DHT22;54700;51.796;10.956;2024-01-06T07:47:10;3.90;99.90
67901;DHT22;54700;51.796;10.956;2024-01-06T07:49:38;3.90;99.90
67901;DHT22;54700;51.796;10.956;2024-01-06T07:52:05;3.90;99.90
67901;DHT22;54700;51.796;10.956;2024-01-06T07:54:33;3.90;99.90
67901;DHT22;54700;51.796;10.956;2024-01-06T07:57:00;3.90;99.90
67901;DHT22;54700;51.796;10.956;2024-01-06T07:59:27;3.90;99.90
67901;DHT22;54700;51.796;10.956;2024-01-06T08:01:54;3.80;99.90
67901;DHT22;54700;51.796;10.956;2024-01-06T08:04:21;3.80;99.90
67901;DHT22;54700;51.796;10.956;2024-01-06T08:06:51;3.80;99.90
67901;DHT22;54700;51.796;10.956;2024-01-06T08:09:19;3.80;99.90
67901;DHT22;54700;51.796;10.956;2024-01-06T08:11:49;3.80;99.90
67901;DHT22;54700;51.796;10.956;2024-01-06T08:14:16;3.80;99.90
67901;DHT22;54700;51.796;10.956;2024-01-06T08:16:44;3.80;99.90
67901;DHT22;54700;51.796;10.956;2024-01-06T08:19:11;3.70;99.90
67901;DHT22;54700;51.796;10.956;2024-01-06T08:21:39;3.70;99.90
67901;DHT22;54700;51.796;10.956;2024-01-06T08:24:08;3.60;99.90
67901;DHT22;54700;51.796;10.956;2024-01-06T08:26:35;3.60;99.90
67901;DHT22;54700;51.796;10.956;2024-01-06T08:29:02;3.60;99.90
67901;DHT22;54700;51.796;10.956;2024-01-06T08:31:32;3.60;99.90
67901;DHT22;54700;51.796;10.956;2024-01-06T08:33:59;3.50;99.90
67901;DHT22;54700;51.796;10.956;2024-01-06T08:36:26;3.50;99.90
67901;DHT22;54700;51.796;10.956;2024-01-06T08:38:53;3.50;99.90
67901;DHT22;54700;51.796;10.956;2024-01-06T08:41:23;3.60;99.90
67901;DHT22;54700;51.796;10.956;2024-01-06T08:43:50;3.60;99.90
67901;DHT22;54700;51.796;10.956;2024-01-06T08:46:19;3.60;99.90
67901;DHT22;54700;51.796;10.956;2024-01-06T08:48:46;3.60;99.90
67901;DHT22;54700;51.796;10.956;2024-01-06T08:51:14;3.60;99.90
67901;DHT22;54700;51.796;10.956;2024-01-06T08:53:42;3.50;99.90
67901;DHT22;54700;51.796;10.956;2024-01-06T08:56:09;3.50;99.90
67901;DHT22;54700;51.796;10.956;2024-01-06T08:58:38;3.50;99.90
67901;DHT22;54700;51.796;10.956;2024-01-06T09:01:05;3.60;99.90
67901;DHT22;54700;51.796;10.956;2024-01-06T09:03:32;3.60;99.90
67901;DHT22;54700;51.796;10.956;2024-01-06T09:05:59;3.60;99.90
67901;DHT22;54700;51.796;10.956;2024-01-06T09:08:26;3.60;99.90
67901;DHT22;54700;51.796;10.956;2024-01-06T09:10:56;3.60;99.90
67901;DHT22;54700;51.796;10.956;2024-01-06T09:13:22;3.70;99.90
67901;DHT22;54700;51.796;10.956;2024-01-06T09:15:52;3.70;99.90
67901;DHT22;54700;51.796;10.956;2024-01-06T09:18:19;3.70;99.90
67901;DHT22;54700;51.796;10.956;2024-01-06T09:20:46;3.80;99.90
67901;DHT22;54700;51.796;10.956;2024-01-06T09:23:14;3.80;99.90
67901;DHT22;54700;51.796;10.956;2024-01-06T09:25:42;3.80;99.90
67901;DHT22;54700;51.796;10.956;2024-01-06T09:28:09;3.70;99.90
67901;DHT22;54700;51.796;10.956;2024-01-06T09:30:37;3.70;99.90
67901;DHT22;54700;51.796;10.956;2024-01-06T09:33:05;3.70;99.90
67901;DHT22;54700;51.796;10.956;2024-01-06T09:35:33;3.70;99.90
67901;DHT22;54700;51.796;10.956;2024-01-06T09:38:00;3.70;99.90
67901;DHT22;54700;51.796;10.956;2024-01-06T09:40:27;3.80;99.90
67901;DHT22;54700;51.796;10.956;2024-01-06T09:42:58;3.80;99.90
67901;DHT22;54700;51.796;10.956;2024-01-06T09:45:25;3.80;99.90
67901;DHT22;54700;51.796;10.956;2024-01-06T09:47:52;3.70;99.90
67901;DHT22;54700;51.796;10.956;2024-01-06T09:50:22;3.70;99.90
67901;DHT22;54700;51.796;10.956;2024-01-06T09:52:49;3.70;99.90
67901;DHT22;54700;51.796;10.956;2024-01-06T09:55:21;3.70;99.90
67901;DHT22;54700;51.796;10.956;2024-01-06T09:57:51;3.70;99.90
67901;DHT22;54700;51.796;10.956;2024-01-06T10:00:18;3.70;99.90
67901;DHT22;54700;51.796;10.956;2024-01-06T10:02:46;3.70;99.90
67901;DHT22;54700;51.796;10.956;2024-01-06T10:05:14;3.70;99.90
67901;DHT22;54700;51.796;10.956;2024-01-06T10:07:43;3.70;99.90
67901;DHT22;54700;51.796;10.956;2024-01-06T10:10:11;3.70;99.90
67901;DHT22;54700;51.796;10.956;2024-01-06T10:12:39;3.70;99.90
67901;DHT22;54700;51.796;10.956;2024-01-06T10:15:08;3.70;99.90
67901;DHT22;54700;51.796;10.956;2024-01-06T10:17:36;3.70;99.90
67901;DHT22;54700;51.796;10.956;2024-01-06T10:20:06;3.60;99.90
67901;DHT22;54700;51.796;10.956;2024-01-06T10:22:35;3.60;99.90
67901;DHT22;54700;51.796;10.956;2024-01-06T10:25:06;3.60;99.90
67901;DHT22;54700;51.796;10.956;2024-01-06T10:27:35;3.60;99.90
67901;DHT22;54700;51.796;10.956;2024-01-06T10:30:03;3.60;99.90
67901;DHT22;54700;51.796;10.956;2024-01-06T10:32:32;3.60;99.90
67901;DHT22;54700;51.796;10.956;2024-01-06T10:34:59;3.60;99.90
67901;DHT22;54700;51.796;10.956;2024-01-06T10:37:28;3.60;99.90
67901;DHT22;54700;51.796;10.956;2024-01-06T10:42:42;3.70;99.90
67901;DHT22;54700;51.796;10.956;2024-01-06T10:45:11;3.70;99.90
67901;DHT22;54700;51.796;10.956;2024-01-06T10:47:40;3.80;99.90
67901;DHT22;54700;51.796;10.956;2024-01-06T10:50:11;3.80;99.90
67901;DHT22;54700;51.796;10.956;2024-01-06T10:52:40;3.70;99.90
67901;DHT22;54700;51.796;10.956;2024-01-06T10:55:08;3.70;99.90
67901;DHT22;54700;51.796;10.956;2024-01-06T10:57:38;3.70;99.90
67901;DHT22;54700;51.796;10.956;2024-01-06T11:00:06;3.70;99.90
67901;DHT22;54700;51.796;10.956;2024-01-06T11:02:35;3.60;99.90
67901;DHT22;54700;51.796;10.956;2024-01-06T11:05:02;3.60;99.90
67901;DHT22;54700;51.796;10.956;2024-01-06T11:07:33;3.60;99.90
67901;DHT22;54700;51.796;10.956;2024-01-06T11:10:04;3.50;99.90
67901;DHT22;54700;51.796;10.956;2024-01-06T11:12:35;3.50;99.90
67901;DHT22;54700;51.796;10.956;2024-01-06T11:15:04;3.60;99.90
67901;DHT22;54700;51.796;10.956;2024-01-06T11:17:50;3.50;99.90
67901;DHT22;54700;51.796;10.956;2024-01-06T11:20:18;3.50;99.90
67901;DHT22;54700;51.796;10.956;2024-01-06T11:22:46;3.40;99.90
67901;DHT22;54700;51.796;10.956;2024-01-06T11:25:14;3.40;99.90
67901;DHT22;54700;51.796;10.956;2024-01-06T11:27:42;3.40;99.90
67901;DHT22;54700;51.796;10.956;2024-01-06T11:30:20;3.30;99.90
67901;DHT22;54700;51.796;10.956;2024-01-06T11:32:48;3.30;99.90
67901;DHT22;54700;51.796;10.956;2024-01-06T11:35:18;3.30;99.90
67901;DHT22;54700;51.796;10.956;2024-01-06T11:37:53;3.30;99.90
67901;DHT22;54700;51.796;10.956;2024-01-06T11:40:23;3.30;99.90
67901;DHT22;54700;51.796;10.956;2024-01-06T11:42:57;3.30;99.90
67901;DHT22;54700;51.796;10.956;2024-01-06T11:45:27;3.40;99.90
67901;DHT22;54700;51.796;10.956;2024-01-06T11:47:55;3.40;99.90
67901;DHT22;54700;51.796;10.956;2024-01-06T11:50:24;3.40;99.90
67901;DHT22;54700;51.796;10.956;2024-01-06T11:52:54;3.40;99.90
67901;DHT22;54700;51.796;10.956;2024-01-06T11:55:21;3.40;99.90
67901;DHT22;54700;51.796;10.956;2024-01-06T11:57:49;3.40;99.90
67901;DHT22;54700;51.796;10.956;2024-01-06T12:00:16;3.30;99.90
67901;DHT22;54700;51.796;10.956;2024-01-06T12:02:45;3.30;99.90
67901;DHT22;54700;51.796;10.956;2024-01-06T12:05:12;3.30;99.90
67901;DHT22;54700;51.796;10.956;2024-01-06T12:07:41;3.30;99.90
67901;DHT22;54700;51.796;10.956;2024-01-06T12:10:09;3.30;99.90
67901;DHT22;54700;51.796;10.956;2024-01-06T12:12:37;3.30;99.90
67901;DHT22;54700;51.796;10.956;2024-01-06T12:15:04;3.30;99.90
67901;DHT22;54700;51.796;10.956;2024-01-06T12:17:35;3.30;99.90
67901;DHT22;54700;51.796;10.956;2024-01-06T12:20:04;3.30;99.90
67901;DHT22;54700;51.796;10.956;2024-01-06T12:22:34;3.30;99.90
67901;DHT22;54700;51.796;10.956;2024-01-06T12:25:01;3.20;99.90
67901;DHT22;54700;51.796;10.956;2024-01-06T12:27:31;3.20;99.90
67901;DHT22;54700;51.796;10.956;2024-01-06T12:29:57;3.20;99.90
67901;DHT22;54700;51.796;10.956;2024-01-06T12:32:25;3.20;99.90
67901;DHT22;54700;51.796;10.956;2024-01-06T12:34:55;3.20;99.90
67901;DHT22;54700;51.796;10.956;2024-01-06T12:37:25;3.20;99.90
67901;DHT22;54700;51.796;10.956;2024-01-06T12:39:52;3.20;99.90
67901;DHT22;54700;51.796;10.956;2024-01-06T12:42:19;3.10;99.90
67901;DHT22;54700;51.796;10.956;2024-01-06T12:44:49;3.20;99.90
67901;DHT22;54700;51.796;10.956;2024-01-06T12:47:16;3.20;99.90
67901;DHT22;54700;51.796;10.956;2024-01-06T12:49:43;3.20;99.90
67901;DHT22;54700;51.796;10.956;2024-01-06T12:52:10;3.20;99.90
67901;DHT22;54700;51.796;10.956;2024-01-06T12:54:40;3.30;99.90
67901;DHT22;54700;51.796;10.956;2024-01-06T12:57:07;3.30;99.90
67901;DHT22;54700;51.796;10.956;2024-01-06T12:59:35;3.30;99.90
67901;DHT22;54700;51.796;10.956;2024-01-06T13:02:01;3.30;99.90
67901;DHT22;54700;51.796;10.956;2024-01-06T13:04:28;3.30;99.90
67901;DHT22;54700;51.796;10.956;2024-01-06T13:06:55;3.30;99.90
67901;DHT22;54700;51.796;10.956;2024-01-06T13:09:22;3.30;99.90
67901;DHT22;54700;51.796;10.956;2024-01-06T13:11:51;3.30;99.90
67901;DHT22;54700;51.796;10.956;2024-01-06T13:14:21;3.30;99.90
67901;DHT22;54700;51.796;10.956;2024-01-06T13:16:48;3.30;99.90
67901;DHT22;54700;51.796;10.956;2024-01-06T13:19:16;3.40;99.90
67901;DHT22;54700;51.796;10.956;2024-01-06T13:21:44;3.30;99.90
67901;DHT22;54700;51.796;10.956;2024-01-06T13:24:11;3.30;99.90
67901;DHT22;54700;51.796;10.956;2024-01-06T13:26:38;3.20;99.90
67901;DHT22;54700;51.796;10.956;2024-01-06T13:29:08;3.10;99.90
67901;DHT22;54700;51.796;10.956;2024-01-06T13:31:36;3.10;99.90
67901;DHT22;54700;51.796;10.956;2024-01-06T13:34:07;3.20;99.90
67901;DHT22;54700;51.796;10.956;2024-01-06T13:36:34;3.10;99.90
67901;DHT22;54700;51.796;10.956;2024-01-06T13:39:02;3.20;99.90
67901;DHT22;54700;51.796;10.956;2024-01-06T13:41:29;3.10;99.90
67901;DHT22;54700;51.796;10.956;2024-01-06T13:43:56;3.10;99.90
67901;DHT22;54700;51.796;10.956;2024-01-06T13:46:25;3.10;99.90
67901;DHT22;54700;51.796;10.956;2024-01-06T13:48:52;3.00;99.90
67901;DHT22;54700;51.796;10.956;2024-01-06T13:51:19;3.00;99.90
67901;DHT22;54700;51.796;10.956;2024-01-06T13:53:46;2.90;99.90
67901;DHT22;54700;51.796;10.956;2024-01-06T13:56:13;2.90;99.90
67901;DHT22;54700;51.796;10.956;2024-01-06T13:58:40;2.90;99.90
67901;DHT22;54700;51.796;10.956;2024-01-06T14:01:07;2.90;99.90
67901;DHT22;54700;51.796;10.956;2024-01-06T14:03:37;3.00;99.90
67901;DHT22;54700;51.796;10.956;2024-01-06T14:06:04;2.90;99.90
67901;DHT22;54700;51.796;10.956;2024-01-06T14:08:32;2.90;99.90
67901;DHT22;54700;51.796;10.956;2024-01-06T14:10:59;2.90;99.90
67901;DHT22;54700;51.796;10.956;2024-01-06T14:13:26;2.90;99.90
67901;DHT22;54700;51.796;10.956;2024-01-06T14:15:53;2.90;99.90
67901;DHT22;54700;51.796;10.956;2024-01-06T14:18:21;2.90;99.90
67901;DHT22;54700;51.796;10.956;2024-01-06T14:20:50;2.90;99.90
67901;DHT22;54700;51.796;10.956;2024-01-06T14:23:17;2.90;99.90
67901;DHT22;54700;51.796;10.956;2024-01-06T14:25:45;2.90;99.90
67901;DHT22;54700;51.796;10.956;2024-01-06T14:28:12;2.90;99.90
67901;DHT22;54700;51.796;10.956;2024-01-06T14:30:39;2.90;99.90
67901;DHT22;54700;51.796;10.956;2024-01-06T14:33:06;2.90;99.90
67901;DHT22;54700;51.796;10.956;2024-01-06T14:35:34;2.90;99.90
67901;DHT22;54700;51.796;10.956;2024-01-06T14:38:02;2.90;99.90
67901;DHT22;54700;51.796;10.956;2024-01-06T14:40:31;2.90;99.90
67901;DHT22;54700;51.796;10.956;2024-01-06T14:42:58;2.90;99.90
67901;DHT22;54700;51.796;10.956;2024-01-06T14:45:27;2.90;99.90
67901;DHT22;54700;51.796;10.956;2024-01-06T14:47:54;2.90;99.90
67901;DHT22;54700;51.796;10.956;2024-01-06T14:50:21;2.80;99.90
67901;DHT22;54700;51.796;10.956;2024-01-06T14:52:48;2.80;99.90
67901;DHT22;54700;51.796;10.956;2024-01-06T14:55:16;2.80;99.90
67901;DHT22;54700;51.796;10.956;2024-01-06T14:57:43;2.80;99.90
67901;DHT22;54700;51.796;10.956;2024-01-06T15:00:10;2.80;99.90
67901;DHT22;54700;51.796;10.956;2024-01-06T15:02:38;2.90;99.90
67901;DHT22;54700;51.796;10.956;2024-01-06T15:05:06;2.90;99.90
67901;DHT22;54700;51.796;10.956;2024-01-06T15:07:33;2.80;99.90
67901;DHT22;54700;51.796;10.956;2024-01-06T15:10:00;2.80;99.90
67901;DHT22;54700;51.796;10.956;2024-01-06T15:12:32;2.70;99.90
67901;DHT22;54700;51.796;10.956;2024-01-06T15:14:59;2.70;99.90
67901;DHT22;54700;51.796;10.956;2024-01-06T15:17:25;2.60;99.90
67901;DHT22;54700;51.796;10.956;2024-01-06T15:19:52;2.60;99.90
67901;DHT22;54700;51.796;10.956;2024-01-06T15:22:19;2.60;99.90
67901;DHT22;54700;51.796;10.956;2024-01-06T15:24:47;2.50;99.90
67901;DHT22;54700;51.796;10.956;2024-01-06T15:27:16;2.40;99.90
67901;DHT22;54700;51.796;10.956;2024-01-06T15:29:44;2.30;99.90
67901;DHT22;54700;51.796;10.956;2024-01-06T15:32:11;2.30;99.90
67901;DHT22;54700;51.796;10.956;2024-01-06T15:34:38;2.30;99.90